Flight Track Log - Related Links

Times and Time Zones

All times are in EDT time to prevent confusion due to time zone crossing. See the UCA4838 flight status page for this flight to view local times or setup timezone preferences in your user account.

Time Position Orientation Groundspeed Altitude Reporting Facility
EDT Latitude Longitude Course Direction KTS MPH feet Rate Location/Type
Wed 06:14:48 AM 43.1075 -77.6883 217° Southwest 97 112 1,000  Level Cleveland Center
Wed 06:15:18 AM 43.0933 -77.7031 217° Southwest 123 142 1,600 1,071 Climbing Cleveland Center
Wed 06:16:12 AM 43.0542 -77.7133 191° South 177 204 2,500 1,056 Climbing Cleveland Center
Wed 06:17:40 AM 43.0267 -77.6239 113° Southeast 210 242 4,100 1,216 Climbing Cleveland Center
Wed 06:18:40 AM 43.0042 -77.5567 115° Southeast 205 236 5,500 1,350 Climbing Cleveland Center
Wed 06:19:40 AM 42.9814 -77.4869 114° Southeast 205 236 6,800 1,250 Climbing Cleveland Center
Wed 06:20:40 AM 42.9608 -77.4169 112° Southeast 200 230 8,000 1,100 Climbing Cleveland Center
Wed 06:21:40 AM 42.9381 -77.3472 114° Southeast 200 230 9,000 1,000 Climbing Cleveland Center
Wed 06:22:40 AM 42.9153 -77.2747 113° Southeast 200 230 10,000 1,000 Climbing Cleveland Center
Wed 06:23:40 AM 42.8903 -77.2022 115° Southeast 205 236 11,000 882 Climbing Cleveland Center
Wed 06:25:30 AM 42.8475 -77.0642 113° Southeast 217 250 12,500 720 Climbing New York Center
Wed 06:26:10 AM 42.8278 -77.0072 115° Southeast 222 255 12,800 297 Climbing Boston Center
Wed 06:27:11 AM 42.7972 -76.9342 120° Southeast 234 269 13,000 98 Climbing Boston Center
Wed 06:28:12 AM 42.7586 -76.8522 123° Southeast 246 283 13,000  Level Boston Center
Wed 06:29:10 AM 42.7206 -76.7619 120° Southeast 258 297 13,000  Level Boston Center
Wed 06:30:11 AM 42.6822 -76.6744 121° Southeast 263 303 13,000  Level Boston Center
Wed 06:31:11 AM 42.6436 -76.5900 122° Southeast 268 308 13,000  Level Boston Center
Wed 06:32:13 AM 42.6050 -76.5025 121° Southeast 268 308 13,000  Level Boston Center
Wed 06:33:12 AM 42.5642 -76.4153 122° Southeast 268 308 13,000 -51 Level Boston Center
Wed 06:34:10 AM 42.5256 -76.3256 120° Southeast 268 308 12,900  Descending Boston Center
Wed 06:35:10 AM 42.4947 -76.2558 121° Southeast 268 308 13,000 50 Climbing Boston Center
Wed 06:36:11 AM 42.4461 -76.1489 122° Southeast 273 314 13,000  Level Boston Center
Wed 06:37:11 AM 42.4033 -76.0564 122° Southeast 279 321 13,000  Level Boston Center
Wed 06:38:12 AM 42.3683 -75.9756 120° Southeast 271 312 13,000  Level Boston Center
Wed 06:39:13 AM 42.3253 -75.8833 122° Southeast 276 318 13,000  Level Boston Center
Wed 06:40:10 AM 42.2825 -75.7825 120° Southeast 269 310 13,000  Level Boston Center
Wed 06:41:10 AM 42.2431 -75.6992 123° Southeast 274 315 13,000  Level Boston Center
Wed 06:42:11 AM 42.2017 -75.6128 123° Southeast 274 315 13,000  Level Boston Center
Wed 06:43:10 AM 42.1625 -75.5269 122° Southeast 274 315 13,000  Level Boston Center
Wed 06:44:11 AM 42.1211 -75.4408 123° Southeast 274 315 13,000  Level Boston Center
Wed 06:45:12 AM 42.0817 -75.3522 121° Southeast 274 315 13,000 -49 Level Boston Center
Wed 06:46:13 AM 42.0442 -75.2639 120° Southeast 274 315 12,900  Descending Boston Center
Wed 06:47:10 AM 42.0111 -75.1728 116° Southeast 274 315 13,000 51 Climbing Boston Center
Wed 06:48:10 AM 41.9756 -75.0819 118° Southeast 274 315 13,000  Level Boston Center
Wed 06:49:10 AM 41.9461 -75.0025 116° Southeast 274 315 13,000 -350 Level Boston Center
Wed 06:50:10 AM 41.8897 -74.9167 131° Southeast 269 310 12,300 -942 Descending Boston Center
Wed 06:51:11 AM 41.8261 -74.8750 154° Southeast 275 316 11,100 -1,128 Descending Boston Center
Wed 06:52:23 AM 41.7481 -74.8219 153° Southeast 282 325 9,800 -1,282 Descending Boston Center
Wed 06:53:22 AM 41.6636 -74.7633 153° Southeast 287 330 8,300 -1,311 Descending Boston Center
Wed 06:54:22 AM 41.5939 -74.7164 153° Southeast 287 330 7,200 -836 Descending Boston Center
Wed 06:55:24 AM 41.5236 -74.6889 164° South 274 315 6,600 -600 Descending Boston Center
Wed 06:56:22 AM 41.4508 -74.6725 170° South 263 303 6,000 -212 Descending Boston Center
Wed 06:58:14 AM 41.3167 -74.6333 168° South 262 302 6,000  Level New York TRACON
Wed 06:59:08 AM 41.2500 -74.6000 159° South 261 300 6,000  Level New York TRACON
Wed 07:00:08 AM 41.1833 -74.5667 159° South 257 296 6,000  Level New York TRACON
Wed 07:01:02 AM 41.1333 -74.5333 153° Southeast 258 297 6,000  Level New York TRACON
Wed 07:02:02 AM 41.0833 -74.4667 135° Southeast 260 299 6,000  Level New York TRACON
Wed 07:03:02 AM 41.0333 -74.4000 135° Southeast 249 287 6,000  Level New York TRACON
Wed 07:03:56 AM 40.9667 -74.3833 169° South 251 289 6,000  Level New York TRACON
Wed 07:04:56 AM 40.9333 -74.4333 229° Southwest 231 266 6,000  Level New York TRACON
Wed 07:05:56 AM 40.8833 -74.5000 225° Southwest 233 268 6,000  Level New York TRACON
Wed 07:06:56 AM 40.8333 -74.5667 225° Southwest 236 272 6,000  Level New York TRACON
Wed 07:07:50 AM 40.8000 -74.6167 229° Southwest 243 280 6,000  Level New York TRACON
Wed 07:08:50 AM 40.7333 -74.6333 191° South 240 276 6,000 -200 Level New York TRACON
Wed 07:09:50 AM 40.6667 -74.6500 191° South 250 288 5,600 -500 Descending New York TRACON
Wed 07:10:50 AM 40.6000 -74.6167 159° South 239 275 5,000 -300 Descending New York TRACON
Wed 07:11:50 AM 40.5500 -74.5833 153° Southeast 234 269 5,000  Level New York TRACON
Wed 07:12:50 AM 40.4833 -74.5333 150° Southeast 242 278 5,000 -263 Level New York TRACON
Wed 07:13:44 AM 40.4333 -74.5000 153° Southeast 223 257 4,500 -526 Descending New York TRACON
Wed 07:14:44 AM 40.3833 -74.4500 143° Southeast 212 244 4,000 -400 Descending New York TRACON
Wed 07:15:44 AM 40.3500 -74.3833 123° Southeast 221 254 3,700 -500 Descending New York TRACON
Wed 07:16:44 AM 40.3833 -74.3500 37° Northeast 204 235 3,000 -350 Descending New York TRACON
Wed 07:17:44 AM 40.4500 -74.3333 11° North 206 237 3,000  Level New York TRACON
Wed 07:18:44 AM 40.5000 -74.2833 37° Northeast 201 231 3,000 -50 Level New York TRACON
Wed 07:19:44 AM 40.5333 -74.2667 21° North 181 208 2,900 -500 Descending New York TRACON
Wed 07:20:44 AM 40.5833 -74.2333 27° Northeast 181 208 2,000 -895 Descending New York TRACON
Wed 07:21:38 AM 40.6333 -74.2000 27° Northeast 171 197 1,200 -842 Descending New York TRACON
Wed 07:22:38 AM 40.6667 -74.1833 21° North 135 155 400 -800 Descending New York TRACON
Wed 07:24:00 AM 40.6833 -74.1667 31° Northeast  Level FlightAware Approximate
Wed 07:31:00 AM 40.6925 -74.1687 31° Northeast  Level Estimated
Wed 07:32:00 AM 40.6925 -74.1687 31° Northeast  Level Estimated

Login

Don't have an account? Register now (free) for customized features, flight alerts, and more!